Thunder radar more information blitzortung!


Radar de pluja more information rain snow radar


Visita la nostra xarxa de llocs de meteo:

Template documentation
and downloads

And another site



No particular awareness of the weather is required.    There are no Weather-warnings

Pagina Historial Weather Underground text

Diari Resum January 2, 2018 Unitats:  Tant    Imperial   Mètric
« Previous Dia
SegĂźent Dia »
Diari Setmana Mensual Anual Personalitzada
  Maxima: Minima: Media:
Temperatura: TemperatureC °F /  -17.8 °C 7.8 °F /  -13.4 °C 13.3 °F /  -10.4 °C
Punt de rosada: DewpointC °F /  -17.8 °C 0.5 °F /  -17.5 °C 5.5 °F /  -14.7 °C
Humitat: Humidity % 52 % 59 %
Wind Speed: WindSpeedKMH mph /  0 km/h - 6.4 mph /  10.3 km/h
RĂ fegues de vent: WindSpeedGustKMH mph /  0 km/h - -
Vent:- - SW
Pression baro: PressurehPa in /  0 hPa 1020.9 in /  34567.7 hPa -
Precipitacions: 0.0 in /  0 mm    
Historical Graphs
 
 
Dades de taula per January 2, 2018
Temps Temperatura Punt de rosada Pression baro Vent Wind Speed RĂ fegues de vent Humitat Rainfall Rate (Hourly)
TemperatureC °F /  -17.8 °C DewpointC °F /  -17.8 °C PressurehPa in /  0 hPa Calm     Humidity % HourlyPrecipMM in /  0 mm
00:02 10.9 °F /  -11.7 °C 2.4 °F /  -16.4 °C 1020.9 in /  34567.7 hPa WNW 20.4 mph /  32.8 km/h 20.4 mph /  32.8 km/h 56 % 0.0 in /  0 mm
00:04 10.9 °F /  -11.7 °C 2.4 °F /  -16.4 °C 1020.9 in /  34567.7 hPa WNW 13.0 mph /  20.9 km/h 13.0 mph /  20.9 km/h 56 % 0.0 in /  0 mm
00:05 8.7 °F /  -12.9 °C 1.1 °F /  -17.2 °C 1021.9 in /  34601.5 hPa West 4.8 mph /  7.7 km/h 6.4 mph /  10.3 km/h 59 % 0.0 in /  0 mm
00:15 8.6 °F /  -13 °C 1.1 °F /  -17.2 °C 1021.9 in /  34601.5 hPa West 8.0 mph /  12.9 km/h 8.0 mph /  12.9 km/h 59 % 0.0 in /  0 mm
00:25 8.5 °F /  -13.1 °C 0.9 °F /  -17.3 °C 1021.9 in /  34601.5 hPa West 4.8 mph /  7.7 km/h 6.4 mph /  10.3 km/h 59 % 0.0 in /  0 mm
00:45 8.5 °F /  -13.1 °C 0.9 °F /  -17.3 °C 1021.9 in /  34601.5 hPa WSW 3.2 mph /  5.1 km/h 8.0 mph /  12.9 km/h 59 % 0.0 in /  0 mm
00:55 8.4 °F /  -13.1 °C 0.8 °F /  -17.3 °C 1021.9 in /  34601.5 hPa West 3.2 mph /  5.1 km/h 6.4 mph /  10.3 km/h 59 % 0.0 in /  0 mm
01:05 7.9 °F /  -13.4 °C 0.6 °F /  -17.4 °C 1022.9 in /  34635.4 hPa WSW 3.2 mph /  5.1 km/h 3.2 mph /  5.1 km/h 60 % 0.0 in /  0 mm
01:25 8.2 °F /  -13.2 °C 0.9 °F /  -17.3 °C 1022.9 in /  34635.4 hPa WSW 1.6 mph /  2.6 km/h 4.8 mph /  7.7 km/h 60 % 0.0 in /  0 mm
01:45 8.1 °F /  -13.3 °C 0.8 °F /  -17.3 °C 1022.9 in /  34635.4 hPa WNW 1.6 mph /  2.6 km/h 3.2 mph /  5.1 km/h 60 % 0.0 in /  0 mm
01:55 7.9 °F /  -13.4 °C 0.6 °F /  -17.4 °C 1022.9 in /  34635.4 hPa Calm   3.2 mph /  5.1 km/h 60 % 0.0 in /  0 mm
02:05 7.8 °F /  -13.4 °C 0.5 °F /  -17.5 °C 1023.9 in /  34669.3 hPa WNW 3.2 mph /  5.1 km/h 3.2 mph /  5.1 km/h 60 % 0.0 in /  0 mm
02:25 8.3 °F /  -13.2 °C 1.0 °F /  -17.2 °C 1023.9 in /  34669.3 hPa WSW 1.6 mph /  2.6 km/h 4.8 mph /  7.7 km/h 60 % 0.0 in /  0 mm
02:35 8.5 °F /  -13.1 °C 1.4 °F /  -17 °C 1023.9 in /  34669.3 hPa WSW 4.8 mph /  7.7 km/h 8.0 mph /  12.9 km/h 61 % 0.0 in /  0 mm
02:45 8.5 °F /  -13.1 °C 1.4 °F /  -17 °C 1023.9 in /  34669.3 hPa WSW 3.2 mph /  5.1 km/h 6.4 mph /  10.3 km/h 61 % 0.0 in /  0 mm
03:05 8.9 °F /  -12.8 °C 1.8 °F /  -16.8 °C 1023.9 in /  34669.3 hPa WSW 3.2 mph /  5.1 km/h 9.7 mph /  15.6 km/h 61 % 0.0 in /  0 mm
03:15 9.2 °F /  -12.7 °C 2.1 °F /  -16.6 °C 1023.9 in /  34669.3 hPa WSW 3.2 mph /  5.1 km/h 8.0 mph /  12.9 km/h 61 % 0.0 in /  0 mm
03:25 9.6 °F /  -12.4 °C 2.4 °F /  -16.4 °C 1023.9 in /  34669.3 hPa WSW 3.2 mph /  5.1 km/h 4.8 mph /  7.7 km/h 61 % 0.0 in /  0 mm
03:35 10.0 °F /  -12.2 °C 2.8 °F /  -16.2 °C 1023.9 in /  34669.3 hPa SW 4.8 mph /  7.7 km/h 4.8 mph /  7.7 km/h 61 % 0.0 in /  0 mm
03:55 9.9 °F /  -12.3 °C 2.7 °F /  -16.3 °C 1022.9 in /  34635.4 hPa Calm   4.8 mph /  7.7 km/h 61 % 0.0 in /  0 mm
04:05 10.0 °F /  -12.2 °C 2.8 °F /  -16.2 °C 1023.9 in /  34669.3 hPa Calm   3.2 mph /  5.1 km/h 61 % 0.0 in /  0 mm
04:15 10.0 °F /  -12.2 °C 2.8 °F /  -16.2 °C 1023.9 in /  34669.3 hPa West 3.2 mph /  5.1 km/h 4.8 mph /  7.7 km/h 61 % 0.0 in /  0 mm
04:35 10.2 °F /  -12.1 °C 2.6 °F /  -16.3 °C 1023.9 in /  34669.3 hPa NW 4.8 mph /  7.7 km/h 6.4 mph /  10.3 km/h 59 % 0.0 in /  0 mm
10:39 10.3 °F /  -12.1 °C 2.4 °F /  -16.4 °C 1024.9 in /  34703.1 hPa NNE 7.4 mph /  11.9 km/h 7.4 mph /  11.9 km/h 58 % 0.0 in /  0 mm
10:41 10.3 °F /  -12.1 °C 2.4 °F /  -16.4 °C 1024.9 in /  34703.1 hPa ENE 7.4 mph /  11.9 km/h 7.4 mph /  11.9 km/h 58 % 0.0 in /  0 mm
10:46 10.3 °F /  -12.1 °C 2.4 °F /  -16.4 °C 1024.9 in /  34703.1 hPa NNE 3.7 mph /  6 km/h 3.7 mph /  6 km/h 58 % 0.0 in /  0 mm
10:47 10.3 °F /  -12.1 °C 2.4 °F /  -16.4 °C 1024.9 in /  34703.1 hPa WNW 5.6 mph /  9 km/h 5.6 mph /  9 km/h 58 % 0.0 in /  0 mm
10:52 10.0 °F /  -12.2 °C 2.1 °F /  -16.6 °C 1024.9 in /  34703.1 hPa ENE 5.6 mph /  9 km/h 5.6 mph /  9 km/h 58 % 0.0 in /  0 mm
10:57 9.9 °F /  -12.3 °C 2.0 °F /  -16.7 °C 1024.9 in /  34703.1 hPa NE 8.7 mph /  14 km/h 8.7 mph /  14 km/h 58 % 0.0 in /  0 mm
11:02 9.9 °F /  -12.3 °C 2.0 °F /  -16.7 °C 1024.9 in /  34703.1 hPa NE 3.9 mph /  6.3 km/h 3.9 mph /  6.3 km/h 58 % 0.0 in /  0 mm
11:05 10.1 °F /  -12.2 °C 2.2 °F /  -16.6 °C 1024.9 in /  34703.1 hPa ENE 5.6 mph /  9 km/h 5.6 mph /  9 km/h 58 % 0.0 in /  0 mm
11:08 10.1 °F /  -12.2 °C 2.2 °F /  -16.6 °C 1024.9 in /  34703.1 hPa ENE 3.7 mph /  6 km/h 3.9 mph /  6.3 km/h 58 % 0.0 in /  0 mm
11:13 10.2 °F /  -12.1 °C 2.3 °F /  -16.5 °C 1024.9 in /  34703.1 hPa SE 3.9 mph /  6.3 km/h 3.9 mph /  6.3 km/h 58 % 0.0 in /  0 mm
11:14 10.2 °F /  -12.1 °C 2.3 °F /  -16.5 °C 1024.9 in /  34703.1 hPa ESE 3.7 mph /  6 km/h 3.7 mph /  6 km/h 58 % 0.0 in /  0 mm
11:19 10.2 °F /  -12.1 °C 2.1 °F /  -16.6 °C 1024.9 in /  34703.1 hPa NNE 5.6 mph /  9 km/h 5.6 mph /  9 km/h 57 % 0.0 in /  0 mm
11:20 10.2 °F /  -12.1 °C 2.1 °F /  -16.6 °C 1024.9 in /  34703.1 hPa NE 4.2 mph /  6.8 km/h 4.2 mph /  6.8 km/h 57 % 0.0 in /  0 mm
11:25 10.1 °F /  -12.2 °C 1.9 °F /  -16.7 °C 1023.9 in /  34669.3 hPa NNE 3.7 mph /  6 km/h 3.7 mph /  6 km/h 57 % 0.0 in /  0 mm
11:28 10.1 °F /  -12.2 °C 1.9 °F /  -16.7 °C 1023.9 in /  34669.3 hPa East 3.7 mph /  6 km/h 3.7 mph /  6 km/h 57 % 0.0 in /  0 mm
11:31 10.1 °F /  -12.2 °C 1.9 °F /  -16.7 °C 1023.9 in /  34669.3 hPa ENE 5.6 mph /  9 km/h 5.6 mph /  9 km/h 57 % 0.0 in /  0 mm
11:36 10.0 °F /  -12.2 °C 1.9 °F /  -16.7 °C 1023.9 in /  34669.3 hPa NE 7.4 mph /  11.9 km/h 7.4 mph /  11.9 km/h 57 % 0.0 in /  0 mm
11:41 10.0 °F /  -12.2 °C 1.9 °F /  -16.7 °C 1023.9 in /  34669.3 hPa NE 9.3 mph /  15 km/h 9.3 mph /  15 km/h 57 % 0.0 in /  0 mm
11:47 10.1 °F /  -12.2 °C 1.7 °F /  -16.8 °C 1023.9 in /  34669.3 hPa ENE 11.1 mph /  17.9 km/h 11.1 mph /  17.9 km/h 56 % 0.0 in /  0 mm
11:49 10.2 °F /  -12.1 °C 1.8 °F /  -16.8 °C 1023.9 in /  34669.3 hPa NNE 9.3 mph /  15 km/h 9.3 mph /  15 km/h 56 % 0.0 in /  0 mm
11:52 10.6 °F /  -11.9 °C 2.2 °F /  -16.6 °C 1023.9 in /  34669.3 hPa NW 5.6 mph /  9 km/h 5.6 mph /  9 km/h 56 % 0.0 in /  0 mm
11:57 10.9 °F /  -11.7 °C 2.4 °F /  -16.4 °C 1023.9 in /  34669.3 hPa NNE 11.1 mph /  17.9 km/h 11.1 mph /  17.9 km/h 56 % 0.0 in /  0 mm
11:58 10.9 °F /  -11.7 °C 2.4 °F /  -16.4 °C 1023.9 in /  34669.3 hPa North 11.1 mph /  17.9 km/h 11.1 mph /  17.9 km/h 56 % 0.0 in /  0 mm
12:04 11.4 °F /  -11.4 °C 2.9 °F /  -16.2 °C 1023.9 in /  34669.3 hPa NNW 5.6 mph /  9 km/h 5.6 mph /  9 km/h 56 % 0.0 in /  0 mm
12:07 11.4 °F /  -11.4 °C 2.9 °F /  -16.2 °C 1023.9 in /  34669.3 hPa NNE 5.6 mph /  9 km/h 5.6 mph /  9 km/h 56 % 0.0 in /  0 mm
12:10 11.6 °F /  -11.3 °C 3.1 °F /  -16.1 °C 1023.9 in /  34669.3 hPa ENE 10.0 mph /  16.1 km/h 10.0 mph /  16.1 km/h 56 % 0.0 in /  0 mm
12:15 12.0 °F /  -11.1 °C 3.5 °F /  -15.8 °C 1023.9 in /  34669.3 hPa West 7.4 mph /  11.9 km/h 7.4 mph /  11.9 km/h 56 % 0.0 in /  0 mm
12:16 12.1 °F /  -11.1 °C 3.6 °F /  -15.8 °C 1023.9 in /  34669.3 hPa NNW 5.6 mph /  9 km/h 5.6 mph /  9 km/h 56 % 0.0 in /  0 mm
12:20 12.1 °F /  -11.1 °C 3.6 °F /  -15.8 °C 1023.9 in /  34669.3 hPa WNW 7.4 mph /  11.9 km/h 7.4 mph /  11.9 km/h 56 % 0.0 in /  0 mm
12:21 12.1 °F /  -11.1 °C 3.6 °F /  -15.8 °C 1023.9 in /  34669.3 hPa ESE 3.7 mph /  6 km/h 3.7 mph /  6 km/h 56 % 0.0 in /  0 mm
12:24 12.6 °F /  -10.8 °C 4.1 °F /  -15.5 °C 1023.9 in /  34669.3 hPa NNE 4.2 mph /  6.8 km/h 4.2 mph /  6.8 km/h 56 % 0.0 in /  0 mm
12:27 12.5 °F /  -10.8 °C 3.9 °F /  -15.6 °C 1023.9 in /  34669.3 hPa NNE 9.3 mph /  15 km/h 9.3 mph /  15 km/h 56 % 0.0 in /  0 mm
12:31 13.2 °F /  -10.4 °C 4.8 °F /  -15.1 °C 1023.9 in /  34669.3 hPa NNE 7.4 mph /  11.9 km/h 7.4 mph /  11.9 km/h 57 % 0.0 in /  0 mm
12:32 13.3 °F /  -10.4 °C 4.7 °F /  -15.2 °C 1023.9 in /  34669.3 hPa East 7.4 mph /  11.9 km/h 7.4 mph /  11.9 km/h 56 % 0.0 in /  0 mm
12:36 13.5 °F /  -10.3 °C 4.9 °F /  -15.1 °C 1023.9 in /  34669.3 hPa NW 7.4 mph /  11.9 km/h 7.4 mph /  11.9 km/h 56 % 0.0 in /  0 mm
12:38 13.5 °F /  -10.3 °C 4.9 °F /  -15.1 °C 1023.9 in /  34669.3 hPa NNW 7.4 mph /  11.9 km/h 7.4 mph /  11.9 km/h 56 % 0.0 in /  0 mm
12:43 14.0 °F /  -10 °C 5.3 °F /  -14.8 °C 1023.9 in /  34669.3 hPa NNW 9.3 mph /  15 km/h 9.3 mph /  15 km/h 56 % 0.0 in /  0 mm
12:46 14.5 °F /  -9.7 °C 6.1 °F /  -14.4 °C 1023.9 in /  34669.3 hPa NW 5.6 mph /  9 km/h 5.6 mph /  9 km/h 57 % 0.0 in /  0 mm
12:48 14.6 °F /  -9.7 °C 6.2 °F /  -14.3 °C 1023.9 in /  34669.3 hPa West 9.7 mph /  15.6 km/h 9.7 mph /  15.6 km/h 57 % 0.0 in /  0 mm
12:53 14.8 °F /  -9.6 °C 6.1 °F /  -14.4 °C 1023.9 in /  34669.3 hPa West 7.4 mph /  11.9 km/h 7.4 mph /  11.9 km/h 56 % 0.0 in /  0 mm
12:58 15.0 °F /  -9.4 °C 6.3 °F /  -14.3 °C 1023.9 in /  34669.3 hPa WNW 9.3 mph /  15 km/h 9.3 mph /  15 km/h 56 % 0.0 in /  0 mm
13:00 15.0 °F /  -9.4 °C 6.3 °F /  -14.3 °C 1023.9 in /  34669.3 hPa West 7.9 mph /  12.7 km/h 7.9 mph /  12.7 km/h 56 % 0.0 in /  0 mm
13:05 15.2 °F /  -9.3 °C 6.2 °F /  -14.3 °C 1023.9 in /  34669.3 hPa WNW 20.6 mph /  33.2 km/h 20.6 mph /  33.2 km/h 55 % 0.0 in /  0 mm
13:10 15.1 °F /  -9.4 °C 6.1 °F /  -14.4 °C 1023.9 in /  34669.3 hPa WNW 13.0 mph /  20.9 km/h 13.0 mph /  20.9 km/h 55 % 0.0 in /  0 mm
13:11 15.1 °F /  -9.4 °C 6.1 °F /  -14.4 °C 1023.9 in /  34669.3 hPa North 10.0 mph /  16.1 km/h 10.0 mph /  16.1 km/h 55 % 0.0 in /  0 mm
13:16 15.2 °F /  -9.3 °C 6.2 °F /  -14.3 °C 1023.9 in /  34669.3 hPa WSW 5.6 mph /  9 km/h 6.9 mph /  11.1 km/h 55 % 0.0 in /  0 mm
13:17 15.2 °F /  -9.3 °C 6.2 °F /  -14.3 °C 1023.9 in /  34669.3 hPa West 7.4 mph /  11.9 km/h 7.4 mph /  11.9 km/h 55 % 0.0 in /  0 mm
13:19 15.4 °F /  -9.2 °C 6.4 °F /  -14.2 °C 1023.9 in /  34669.3 hPa NW 9.5 mph /  15.3 km/h 9.5 mph /  15.3 km/h 55 % 0.0 in /  0 mm
13:23 15.4 °F /  -9.2 °C 6.1 °F /  -14.4 °C 1023.9 in /  34669.3 hPa WSW 13.0 mph /  20.9 km/h 13.0 mph /  20.9 km/h 54 % 0.0 in /  0 mm
13:28 15.5 °F /  -9.2 °C 6.2 °F /  -14.3 °C 1023.9 in /  34669.3 hPa West 7.4 mph /  11.9 km/h 7.4 mph /  11.9 km/h 54 % 0.0 in /  0 mm
13:33 15.9 °F /  -8.9 °C 6.6 °F /  -14.1 °C 1023.9 in /  34669.3 hPa NNW 11.1 mph /  17.9 km/h 11.1 mph /  17.9 km/h 54 % 0.0 in /  0 mm
13:38 15.8 °F /  -9 °C 6.5 °F /  -14.2 °C 1022.9 in /  34635.4 hPa WNW 11.1 mph /  17.9 km/h 11.1 mph /  17.9 km/h 54 % 0.0 in /  0 mm
13:40 15.8 °F /  -9 °C 6.5 °F /  -14.2 °C 1022.9 in /  34635.4 hPa WNW 9.5 mph /  15.3 km/h 9.5 mph /  15.3 km/h 54 % 0.0 in /  0 mm
13:43 15.7 °F /  -9.1 °C 6.4 °F /  -14.2 °C 1022.9 in /  34635.4 hPa West 13.0 mph /  20.9 km/h 13.0 mph /  20.9 km/h 54 % 0.0 in /  0 mm
13:46 15.8 °F /  -9 °C 6.5 °F /  -14.2 °C 1022.9 in /  34635.4 hPa WNW 9.3 mph /  15 km/h 9.3 mph /  15 km/h 54 % 0.0 in /  0 mm
13:51 15.7 °F /  -9.1 °C 6.2 °F /  -14.3 °C 1022.9 in /  34635.4 hPa West 16.7 mph /  26.9 km/h 16.7 mph /  26.9 km/h 53 % 0.0 in /  0 mm
13:53 15.6 °F /  -9.1 °C 6.1 °F /  -14.4 °C 1022.9 in /  34635.4 hPa West 16.7 mph /  26.9 km/h 16.7 mph /  26.9 km/h 53 % 0.0 in /  0 mm
13:58 15.5 °F /  -9.2 °C 5.9 °F /  -14.5 °C 1022.9 in /  34635.4 hPa NW 11.1 mph /  17.9 km/h 11.1 mph /  17.9 km/h 53 % 0.0 in /  0 mm
14:04 15.7 °F /  -9.1 °C 6.2 °F /  -14.3 °C 1022.9 in /  34635.4 hPa West 9.7 mph /  15.6 km/h 9.7 mph /  15.6 km/h 53 % 0.0 in /  0 mm
14:08 15.7 °F /  -9.1 °C 6.2 °F /  -14.3 °C 1021.9 in /  34601.5 hPa ENE 13.0 mph /  20.9 km/h 13.0 mph /  20.9 km/h 53 % 0.0 in /  0 mm
14:09 15.7 °F /  -9.1 °C 6.2 °F /  -14.3 °C 1021.9 in /  34601.5 hPa NW 7.4 mph /  11.9 km/h 7.4 mph /  11.9 km/h 53 % 0.0 in /  0 mm
14:15 15.7 °F /  -9.1 °C 6.2 °F /  -14.3 °C 1021.9 in /  34601.5 hPa NW 16.7 mph /  26.9 km/h 16.7 mph /  26.9 km/h 53 % 0.0 in /  0 mm
14:17 15.8 °F /  -9 °C 6.2 °F /  -14.3 °C 1021.9 in /  34601.5 hPa West 10.3 mph /  16.6 km/h 10.3 mph /  16.6 km/h 53 % 0.0 in /  0 mm
14:20 15.7 °F /  -9.1 °C 6.2 °F /  -14.3 °C 1021.9 in /  34601.5 hPa NNE 9.3 mph /  15 km/h 9.3 mph /  15 km/h 53 % 0.0 in /  0 mm
14:25 15.8 °F /  -9 °C 6.2 °F /  -14.3 °C 1022.9 in /  34635.4 hPa WNW 11.1 mph /  17.9 km/h 11.1 mph /  17.9 km/h 53 % 0.0 in /  0 mm
14:30 15.8 °F /  -9 °C 6.2 °F /  -14.3 °C 1022.9 in /  34635.4 hPa WSW 13.0 mph /  20.9 km/h 13.0 mph /  20.9 km/h 53 % 0.0 in /  0 mm
14:31 15.7 °F /  -9.1 °C 6.2 °F /  -14.3 °C 1022.9 in /  34635.4 hPa WSW 13.0 mph /  20.9 km/h 13.0 mph /  20.9 km/h 53 % 0.0 in /  0 mm
14:36 15.7 °F /  -9.1 °C 6.2 °F /  -14.3 °C 1022.9 in /  34635.4 hPa WNW 14.8 mph /  23.8 km/h 14.8 mph /  23.8 km/h 53 % 0.0 in /  0 mm
14:37 15.7 °F /  -9.1 °C 6.2 °F /  -14.3 °C 1022.9 in /  34635.4 hPa SW 9.3 mph /  15 km/h 9.3 mph /  15 km/h 53 % 0.0 in /  0 mm
14:42 15.9 °F /  -8.9 °C 6.3 °F /  -14.3 °C 1022.9 in /  34635.4 hPa East 5.6 mph /  9 km/h 5.8 mph /  9.3 km/h 53 % 0.0 in /  0 mm
14:44 16.0 °F /  -8.9 °C 6.4 °F /  -14.2 °C 1022.9 in /  34635.4 hPa West 5.6 mph /  9 km/h 5.6 mph /  9 km/h 53 % 0.0 in /  0 mm
14:49 15.8 °F /  -9 °C 6.2 °F /  -14.3 °C 1022.9 in /  34635.4 hPa WNW 16.7 mph /  26.9 km/h 16.7 mph /  26.9 km/h 53 % 0.0 in /  0 mm
14:54 16.0 °F /  -8.9 °C 6.4 °F /  -14.2 °C 1022.9 in /  34635.4 hPa WSW 11.1 mph /  17.9 km/h 11.1 mph /  17.9 km/h 53 % 0.0 in /  0 mm
14:56 16.0 °F /  -8.9 °C 6.4 °F /  -14.2 °C 1022.9 in /  34635.4 hPa West 7.4 mph /  11.9 km/h 7.4 mph /  11.9 km/h 53 % 0.0 in /  0 mm
15:01 16.3 °F /  -8.7 °C 6.7 °F /  -14.1 °C 1022.9 in /  34635.4 hPa WSW 7.4 mph /  11.9 km/h 7.4 mph /  11.9 km/h 53 % 0.0 in /  0 mm
15:02 16.3 °F /  -8.7 °C 6.7 °F /  -14.1 °C 1022.9 in /  34635.4 hPa WSW 7.4 mph /  11.9 km/h 7.4 mph /  11.9 km/h 53 % 0.0 in /  0 mm
15:03 16.4 °F /  -8.7 °C 6.8 °F /  -14 °C 1022.9 in /  34635.4 hPa NW 7.4 mph /  11.9 km/h 7.4 mph /  11.9 km/h 53 % 0.0 in /  0 mm
15:07 16.5 °F /  -8.6 °C 6.9 °F /  -13.9 °C 1022.9 in /  34635.4 hPa West 9.3 mph /  15 km/h 9.3 mph /  15 km/h 53 % 0.0 in /  0 mm
15:12 16.5 °F /  -8.6 °C 6.9 °F /  -13.9 °C 1022.9 in /  34635.4 hPa SW 5.8 mph /  9.3 km/h 5.8 mph /  9.3 km/h 53 % 0.0 in /  0 mm
15:13 16.5 °F /  -8.6 °C 6.9 °F /  -13.9 °C 1022.9 in /  34635.4 hPa SSE 5.8 mph /  9.3 km/h 5.8 mph /  9.3 km/h 53 % 0.0 in /  0 mm
15:18 16.6 °F /  -8.6 °C 7.0 °F /  -13.9 °C 1022.9 in /  34635.4 hPa WNW 7.4 mph /  11.9 km/h 7.4 mph /  11.9 km/h 53 % 0.0 in /  0 mm
15:19 16.6 °F /  -8.6 °C 7.0 °F /  -13.9 °C 1022.9 in /  34635.4 hPa WNW 9.3 mph /  15 km/h 9.3 mph /  15 km/h 53 % 0.0 in /  0 mm
15:21 16.6 °F /  -8.6 °C 7.0 °F /  -13.9 °C 1022.9 in /  34635.4 hPa South 20.4 mph /  32.8 km/h 20.4 mph /  32.8 km/h 53 % 0.0 in /  0 mm
15:24 16.3 °F /  -8.7 °C 6.4 °F /  -14.2 °C 1022.9 in /  34635.4 hPa West 14.8 mph /  23.8 km/h 14.8 mph /  23.8 km/h 52 % 0.0 in /  0 mm
15:27 16.2 °F /  -8.8 °C 6.3 °F /  -14.3 °C 1022.9 in /  34635.4 hPa West 9.3 mph /  15 km/h 9.3 mph /  15 km/h 52 % 0.0 in /  0 mm
15:31 16.2 °F /  -8.8 °C 6.3 °F /  -14.3 °C 1022.9 in /  34635.4 hPa West 11.1 mph /  17.9 km/h 11.1 mph /  17.9 km/h 52 % 0.0 in /  0 mm
15:35 16.1 °F /  -8.8 °C 6.2 °F /  -14.3 °C 1022.9 in /  34635.4 hPa West 9.3 mph /  15 km/h 9.3 mph /  15 km/h 52 % 0.0 in /  0 mm
15:36 16.1 °F /  -8.8 °C 6.2 °F /  -14.3 °C 1022.9 in /  34635.4 hPa WSW 14.8 mph /  23.8 km/h 14.8 mph /  23.8 km/h 52 % 0.0 in /  0 mm
15:44 16.0 °F /  -8.9 °C 6.2 °F /  -14.3 °C 1022.9 in /  34635.4 hPa SW 11.1 mph /  17.9 km/h 11.1 mph /  17.9 km/h 52 % 0.0 in /  0 mm
15:49 16.1 °F /  -8.8 °C 6.5 °F /  -14.2 °C 1022.9 in /  34635.4 hPa West 13.0 mph /  20.9 km/h 13.0 mph /  20.9 km/h 53 % 0.0 in /  0 mm
15:50 16.1 °F /  -8.8 °C 6.5 °F /  -14.2 °C 1022.9 in /  34635.4 hPa WSW 11.3 mph /  18.2 km/h 16.1 mph /  25.9 km/h 53 % 0.0 in /  0 mm
15:55 16.3 °F /  -8.7 °C 6.7 °F /  -14.1 °C 1022.9 in /  34635.4 hPa North 5.6 mph /  9 km/h 5.6 mph /  9 km/h 53 % 0.0 in /  0 mm
15:57 16.3 °F /  -8.7 °C 6.7 °F /  -14.1 °C 1022.9 in /  34635.4 hPa WSW 6.4 mph /  10.3 km/h 6.4 mph /  10.3 km/h 53 % 0.0 in /  0 mm
16:02 16.5 °F /  -8.6 °C 6.9 °F /  -13.9 °C 1022.9 in /  34635.4 hPa SW 7.4 mph /  11.9 km/h 7.4 mph /  11.9 km/h 53 % 0.0 in /  0 mm
16:05 16.6 °F /  -8.6 °C 7.0 °F /  -13.9 °C 1022.9 in /  34635.4 hPa SSW 9.7 mph /  15.6 km/h 9.7 mph /  15.6 km/h 53 % 0.0 in /  0 mm
16:08 16.5 °F /  -8.6 °C 6.9 °F /  -13.9 °C 1022.9 in /  34635.4 hPa West 6.1 mph /  9.8 km/h 6.1 mph /  9.8 km/h 53 % 0.0 in /  0 mm
16:10 16.5 °F /  -8.6 °C 6.9 °F /  -13.9 °C 1022.9 in /  34635.4 hPa West 6.4 mph /  10.3 km/h 6.4 mph /  10.3 km/h 53 % 0.0 in /  0 mm
16:14 16.2 °F /  -8.8 °C 6.6 °F /  -14.1 °C 1022.9 in /  34635.4 hPa WNW 9.5 mph /  15.3 km/h 9.5 mph /  15.3 km/h 53 % 0.0 in /  0 mm
16:16 16.1 °F /  -8.8 °C 6.5 °F /  -14.2 °C 1022.9 in /  34635.4 hPa SW 11.1 mph /  17.9 km/h 11.1 mph /  17.9 km/h 53 % 0.0 in /  0 mm
16:20 16.2 °F /  -8.8 °C 6.6 °F /  -14.1 °C 1022.9 in /  34635.4 hPa WNW 7.4 mph /  11.9 km/h 7.4 mph /  11.9 km/h 53 % 0.0 in /  0 mm
16:25 16.3 °F /  -8.7 °C 6.7 °F /  -14.1 °C 1022.9 in /  34635.4 hPa WNW 13.0 mph /  20.9 km/h 13.0 mph /  20.9 km/h 53 % 0.0 in /  0 mm
16:28 16.3 °F /  -8.7 °C 6.7 °F /  -14.1 °C 1022.9 in /  34635.4 hPa SW 11.9 mph /  19.2 km/h 11.9 mph /  19.2 km/h 53 % 0.0 in /  0 mm
16:33 16.3 °F /  -8.7 °C 6.7 °F /  -14.1 °C 1022.9 in /  34635.4 hPa WSW 13.0 mph /  20.9 km/h 13.0 mph /  20.9 km/h 53 % 0.0 in /  0 mm
16:34 16.3 °F /  -8.7 °C 6.7 °F /  -14.1 °C 1022.9 in /  34635.4 hPa West 13.0 mph /  20.9 km/h 13.0 mph /  20.9 km/h 53 % 0.0 in /  0 mm
16:39 16.4 °F /  -8.7 °C 6.8 °F /  -14 °C 1022.9 in /  34635.4 hPa South 4.2 mph /  6.8 km/h 4.2 mph /  6.8 km/h 53 % 0.0 in /  0 mm
16:44 16.2 °F /  -8.8 °C 6.6 °F /  -14.1 °C 1022.9 in /  34635.4 hPa West 11.1 mph /  17.9 km/h 11.1 mph /  17.9 km/h 53 % 0.0 in /  0 mm
16:47 16.2 °F /  -8.8 °C 6.6 °F /  -14.1 °C 1022.9 in /  34635.4 hPa WSW 7.4 mph /  11.9 km/h 7.4 mph /  11.9 km/h 53 % 0.0 in /  0 mm
16:52 16.1 °F /  -8.8 °C 6.5 °F /  -14.2 °C 1022.9 in /  34635.4 hPa West 7.4 mph /  11.9 km/h 7.4 mph /  11.9 km/h 53 % 0.0 in /  0 mm
16:53 16.1 °F /  -8.8 °C 6.5 °F /  -14.2 °C 1022.9 in /  34635.4 hPa SW 6.9 mph /  11.1 km/h 6.9 mph /  11.1 km/h 53 % 0.0 in /  0 mm
16:58 16.0 °F /  -8.9 °C 6.4 °F /  -14.2 °C 1022.9 in /  34635.4 hPa WSW 9.3 mph /  15 km/h 9.3 mph /  15 km/h 53 % 0.0 in /  0 mm
17:02 15.9 °F /  -8.9 °C 6.3 °F /  -14.3 °C 1022.9 in /  34635.4 hPa West 3.7 mph /  6 km/h 4.7 mph /  7.6 km/h 53 % 0.0 in /  0 mm
17:04 15.8 °F /  -9 °C 6.2 °F /  -14.3 °C 1022.9 in /  34635.4 hPa WSW 5.0 mph /  8 km/h 5.0 mph /  8 km/h 53 % 0.0 in /  0 mm
17:09 15.6 °F /  -9.1 °C 6.3 °F /  -14.3 °C 1022.9 in /  34635.4 hPa WSW 5.6 mph /  9 km/h 5.6 mph /  9 km/h 54 % 0.0 in /  0 mm
17:10 15.5 °F /  -9.2 °C 6.2 °F /  -14.3 °C 1022.9 in /  34635.4 hPa West 5.6 mph /  9 km/h 5.6 mph /  9 km/h 54 % 0.0 in /  0 mm
17:11 15.5 °F /  -9.2 °C 6.2 °F /  -14.3 °C 1022.9 in /  34635.4 hPa SW 5.0 mph /  8 km/h 5.0 mph /  8 km/h 54 % 0.0 in /  0 mm
17:15 15.4 °F /  -9.2 °C 6.1 °F /  -14.4 °C 1022.9 in /  34635.4 hPa WNW 7.4 mph /  11.9 km/h 7.4 mph /  11.9 km/h 54 % 0.0 in /  0 mm
17:18 15.3 °F /  -9.3 °C 6.1 °F /  -14.4 °C 1022.9 in /  34635.4 hPa WSW 5.6 mph /  9 km/h 5.6 mph /  9 km/h 54 % 0.0 in /  0 mm
17:22 15.2 °F /  -9.3 °C 5.9 °F /  -14.5 °C 1022.9 in /  34635.4 hPa West 9.3 mph /  15 km/h 9.3 mph /  15 km/h 54 % 0.0 in /  0 mm
17:26 15.1 °F /  -9.4 °C 5.8 °F /  -14.6 °C 1022.9 in /  34635.4 hPa WSW 5.6 mph /  9 km/h 5.6 mph /  9 km/h 54 % 0.0 in /  0 mm
17:30 15.0 °F /  -9.4 °C 5.8 °F /  -14.6 °C 1022.9 in /  34635.4 hPa West 3.7 mph /  6 km/h 3.7 mph /  6 km/h 54 % 0.0 in /  0 mm
17:34 14.9 °F /  -9.5 °C 5.9 °F /  -14.5 °C 1022.9 in /  34635.4 hPa WNW 3.7 mph /  6 km/h 3.7 mph /  6 km/h 55 % 0.0 in /  0 mm
17:39 14.8 °F /  -9.6 °C 5.8 °F /  -14.6 °C 1022.9 in /  34635.4 hPa WNW 5.6 mph /  9 km/h 5.6 mph /  9 km/h 55 % 0.0 in /  0 mm
17:44 14.8 °F /  -9.6 °C 5.8 °F /  -14.6 °C 1022.9 in /  34635.4 hPa West 5.6 mph /  9 km/h 5.6 mph /  9 km/h 55 % 0.0 in /  0 mm
17:49 14.7 °F /  -9.6 °C 5.7 °F /  -14.6 °C 1022.9 in /  34635.4 hPa WSW 3.7 mph /  6 km/h 3.7 mph /  6 km/h 55 % 0.0 in /  0 mm
17:50 14.6 °F /  -9.7 °C 5.7 °F /  -14.6 °C 1022.9 in /  34635.4 hPa West 3.7 mph /  6 km/h 3.7 mph /  6 km/h 55 % 0.0 in /  0 mm
17:51 14.6 °F /  -9.7 °C 5.7 °F /  -14.6 °C 1022.9 in /  34635.4 hPa West 6.4 mph /  10.3 km/h 6.4 mph /  10.3 km/h 55 % 0.0 in /  0 mm
17:55 14.6 °F /  -9.7 °C 5.9 °F /  -14.5 °C 1022.9 in /  34635.4 hPa SSW 3.7 mph /  6 km/h 3.7 mph /  6 km/h 56 % 0.0 in /  0 mm
17:58 14.5 °F /  -9.7 °C 5.8 °F /  -14.6 °C 1022.9 in /  34635.4 hPa SW 3.7 mph /  6 km/h 3.7 mph /  6 km/h 56 % 0.0 in /  0 mm
18:02 14.5 °F /  -9.7 °C 5.8 °F /  -14.6 °C 1022.9 in /  34635.4 hPa WSW 5.6 mph /  9 km/h 5.6 mph /  9 km/h 56 % 0.0 in /  0 mm
18:07 14.3 °F /  -9.8 °C 5.6 °F /  -14.7 °C 1022.9 in /  34635.4 hPa SSW 3.7 mph /  6 km/h 3.7 mph /  6 km/h 56 % 0.0 in /  0 mm
18:12 14.3 °F /  -9.8 °C 5.6 °F /  -14.7 °C 1022.9 in /  34635.4 hPa SW 3.7 mph /  6 km/h 3.9 mph /  6.3 km/h 56 % 0.0 in /  0 mm
18:13 14.3 °F /  -9.8 °C 5.9 °F /  -14.5 °C 1022.9 in /  34635.4 hPa South 3.9 mph /  6.3 km/h 3.9 mph /  6.3 km/h 57 % 0.0 in /  0 mm
18:18 14.2 °F /  -9.9 °C 5.8 °F /  -14.6 °C 1022.9 in /  34635.4 hPa SW 3.7 mph /  6 km/h 3.7 mph /  6 km/h 57 % 0.0 in /  0 mm
18:20 12.4 °F /  -10.9 °C 6.4 °F /  -14.2 °C 1023.9 in /  34669.3 hPa WSW 3.2 mph /  5.1 km/h   67 % 0.0 in /  0 mm
18:22 14.2 °F /  -9.9 °C 5.8 °F /  -14.6 °C 1022.9 in /  34635.4 hPa WNW 7.4 mph /  11.9 km/h 7.4 mph /  11.9 km/h 57 % 0.0 in /  0 mm
18:27 14.3 °F /  -9.8 °C 5.9 °F /  -14.5 °C 1022.9 in /  34635.4 hPa West 6.1 mph /  9.8 km/h 6.1 mph /  9.8 km/h 57 % 0.0 in /  0 mm
18:28 14.3 °F /  -9.8 °C 5.9 °F /  -14.5 °C 1022.9 in /  34635.4 hPa WSW 7.4 mph /  11.9 km/h 7.4 mph /  11.9 km/h 57 % 0.0 in /  0 mm
18:30 12.5 °F /  -10.8 °C 6.6 °F /  -14.1 °C 1022.9 in /  34635.4 hPa WSW 1.6 mph /  2.6 km/h 6.4 mph /  10.3 km/h 67 % 0.0 in /  0 mm
18:32 14.3 °F /  -9.8 °C 5.9 °F /  -14.5 °C 1022.9 in /  34635.4 hPa WSW 5.6 mph /  9 km/h 5.6 mph /  9 km/h 57 % 0.0 in /  0 mm
18:36 14.2 °F /  -9.9 °C 5.8 °F /  -14.6 °C 1022.9 in /  34635.4 hPa SW 4.7 mph /  7.6 km/h 4.7 mph /  7.6 km/h 57 % 0.0 in /  0 mm
18:40 14.2 °F /  -9.9 °C 5.8 °F /  -14.6 °C 1022.9 in /  34635.4 hPa WSW 7.4 mph /  11.9 km/h 7.4 mph /  11.9 km/h 57 % 0.0 in /  0 mm
18:42 14.2 °F /  -9.9 °C 5.8 °F /  -14.6 °C 1022.9 in /  34635.4 hPa SW 4.2 mph /  6.8 km/h 4.2 mph /  6.8 km/h 57 % 0.0 in /  0 mm
18:45 14.1 °F /  -9.9 °C 5.7 °F /  -14.6 °C 1022.9 in /  34635.4 hPa WSW 7.4 mph /  11.9 km/h 7.4 mph /  11.9 km/h 57 % 0.0 in /  0 mm
18:49 14.0 °F /  -10 °C 5.6 °F /  -14.7 °C 1022.9 in /  34635.4 hPa West 7.4 mph /  11.9 km/h 7.4 mph /  11.9 km/h 57 % 0.0 in /  0 mm
18:50 12.7 °F /  -10.7 °C 6.7 °F /  -14.1 °C 1022.9 in /  34635.4 hPa WSW 1.6 mph /  2.6 km/h 3.2 mph /  5.1 km/h 67 % 0.0 in /  0 mm
18:51 13.9 °F /  -10.1 °C 5.5 °F /  -14.7 °C 1022.9 in /  34635.4 hPa WSW 9.3 mph /  15 km/h 9.3 mph /  15 km/h 57 % 0.0 in /  0 mm
18:56 13.9 °F /  -10.1 °C 5.8 °F /  -14.6 °C 1022.9 in /  34635.4 hPa West 5.6 mph /  9 km/h 5.6 mph /  9 km/h 58 % 0.0 in /  0 mm
18:57 13.9 °F /  -10.1 °C 5.8 °F /  -14.6 °C 1022.9 in /  34635.4 hPa WSW 5.6 mph /  9 km/h 5.6 mph /  9 km/h 58 % 0.0 in /  0 mm
19:00 12.8 °F /  -10.7 °C 6.8 °F /  -14 °C 1022.9 in /  34635.4 hPa West 3.2 mph /  5.1 km/h 3.2 mph /  5.1 km/h 67 % 0.0 in /  0 mm
19:01 13.9 °F /  -10.1 °C 5.8 °F /  -14.6 °C 1022.9 in /  34635.4 hPa WSW 7.4 mph /  11.9 km/h 7.4 mph /  11.9 km/h 58 % 0.0 in /  0 mm
19:03 13.9 °F /  -10.1 °C 5.8 °F /  -14.6 °C 1022.9 in /  34635.4 hPa WNW 7.4 mph /  11.9 km/h 7.4 mph /  11.9 km/h 58 % 0.0 in /  0 mm
19:08 13.9 °F /  -10.1 °C 5.8 °F /  -14.6 °C 1021.9 in /  34601.5 hPa WSW 9.5 mph /  15.3 km/h 9.5 mph /  15.3 km/h 58 % 0.0 in /  0 mm
19:10 12.8 °F /  -10.7 °C 7.1 °F /  -13.8 °C 1022.9 in /  34635.4 hPa West 1.6 mph /  2.6 km/h 4.8 mph /  7.7 km/h 68 % 0.0 in /  0 mm
19:13 14.0 °F /  -10 °C 6.1 °F /  -14.4 °C 1021.9 in /  34601.5 hPa West 3.9 mph /  6.3 km/h 3.9 mph /  6.3 km/h 59 % 0.0 in /  0 mm
19:18 13.9 °F /  -10.1 °C 6.0 °F /  -14.4 °C 1021.9 in /  34601.5 hPa West 7.4 mph /  11.9 km/h 7.4 mph /  11.9 km/h 59 % 0.0 in /  0 mm
19:19 13.9 °F /  -10.1 °C 6.0 °F /  -14.4 °C 1021.9 in /  34601.5 hPa West 5.6 mph /  9 km/h 5.6 mph /  9 km/h 59 % 0.0 in /  0 mm
19:20 12.8 °F /  -10.7 °C 6.8 °F /  -14 °C 1022.9 in /  34635.4 hPa Calm   3.2 mph /  5.1 km/h 67 % 0.0 in /  0 mm
19:24 13.8 °F /  -10.1 °C 5.9 °F /  -14.5 °C 1022.9 in /  34635.4 hPa WSW 7.4 mph /  11.9 km/h 7.4 mph /  11.9 km/h 59 % 0.0 in /  0 mm
19:25 13.8 °F /  -10.1 °C 5.9 °F /  -14.5 °C 1022.9 in /  34635.4 hPa WSW 5.6 mph /  9 km/h 5.6 mph /  9 km/h 59 % 0.0 in /  0 mm
19:30 13.9 °F /  -10.1 °C 6.0 °F /  -14.4 °C 1022.9 in /  34635.4 hPa West 3.2 mph /  5.1 km/h 8.0 mph /  12.9 km/h 59 % 0.0 in /  0 mm
19:31 13.9 °F /  -10.1 °C 6.3 °F /  -14.3 °C 1022.9 in /  34635.4 hPa West 5.8 mph /  9.3 km/h 5.8 mph /  9.3 km/h 60 % 0.0 in /  0 mm
19:35 13.9 °F /  -10.1 °C 6.3 °F /  -14.3 °C 1022.9 in /  34635.4 hPa WSW 5.6 mph /  9 km/h 5.6 mph /  9 km/h 60 % 0.0 in /  0 mm
19:38 13.9 °F /  -10.1 °C 6.3 °F /  -14.3 °C 1021.9 in /  34601.5 hPa WSW 5.8 mph /  9.3 km/h 5.8 mph /  9.3 km/h 60 % 0.0 in /  0 mm
19:42 14.0 °F /  -10 °C 6.3 °F /  -14.3 °C 1021.9 in /  34601.5 hPa West 11.1 mph /  17.9 km/h 11.1 mph /  17.9 km/h 60 % 0.0 in /  0 mm
19:47 14.0 °F /  -10 °C 6.3 °F /  -14.3 °C 1021.9 in /  34601.5 hPa West 5.6 mph /  9 km/h 5.8 mph /  9.3 km/h 60 % 0.0 in /  0 mm
19:50 12.4 °F /  -10.9 °C 6.7 °F /  -14.1 °C 1022.9 in /  34635.4 hPa Calm   1.6 mph /  2.6 km/h 68 % 0.0 in /  0 mm
19:51 14.0 °F /  -10 °C 6.3 °F /  -14.3 °C 1021.9 in /  34601.5 hPa West 11.1 mph /  17.9 km/h 11.1 mph /  17.9 km/h 60 % 0.0 in /  0 mm
19:53 13.9 °F /  -10.1 °C 6.3 °F /  -14.3 °C 1021.9 in /  34601.5 hPa West 13.0 mph /  20.9 km/h 13.0 mph /  20.9 km/h 60 % 0.0 in /  0 mm
19:57 14.0 °F /  -10 °C 6.6 °F /  -14.1 °C 1021.9 in /  34601.5 hPa WNW 14.0 mph /  22.5 km/h 14.0 mph /  22.5 km/h 61 % 0.0 in /  0 mm
20:00 12.4 °F /  -10.9 °C 6.7 °F /  -14.1 °C 1022.9 in /  34635.4 hPa North 1.6 mph /  2.6 km/h 3.2 mph /  5.1 km/h 68 % 0.0 in /  0 mm
20:01 14.1 °F /  -9.9 °C 6.7 °F /  -14.1 °C 1021.9 in /  34601.5 hPa WSW 13.0 mph /  20.9 km/h 13.0 mph /  20.9 km/h 61 % 0.0 in /  0 mm
20:03 14.1 °F /  -9.9 °C 6.7 °F /  -14.1 °C 1021.9 in /  34601.5 hPa WSW 9.7 mph /  15.6 km/h 9.7 mph /  15.6 km/h 61 % 0.0 in /  0 mm
20:08 14.0 °F /  -10 °C 6.6 °F /  -14.1 °C 1021.9 in /  34601.5 hPa WSW 9.3 mph /  15 km/h 9.3 mph /  15 km/h 61 % 0.0 in /  0 mm
20:10 12.2 °F /  -11 °C 6.4 °F /  -14.2 °C 1022.9 in /  34635.4 hPa NE 1.6 mph /  2.6 km/h 3.2 mph /  5.1 km/h 68 % 0.0 in /  0 mm
20:13 13.9 °F /  -10.1 °C 6.5 °F /  -14.2 °C 1021.9 in /  34601.5 hPa West 7.9 mph /  12.7 km/h 7.9 mph /  12.7 km/h 61 % 0.0 in /  0 mm
20:17 13.9 °F /  -10.1 °C 6.5 °F /  -14.2 °C 1021.9 in /  34601.5 hPa West 7.4 mph /  11.9 km/h 7.4 mph /  11.9 km/h 61 % 0.0 in /  0 mm
20:18 13.9 °F /  -10.1 °C 6.5 °F /  -14.2 °C 1021.9 in /  34601.5 hPa West 9.3 mph /  15 km/h 9.3 mph /  15 km/h 61 % 0.0 in /  0 mm
20:23 13.8 °F /  -10.1 °C 6.4 °F /  -14.2 °C 1021.9 in /  34601.5 hPa West 7.4 mph /  11.9 km/h 7.4 mph /  11.9 km/h 61 % 0.0 in /  0 mm
20:24 13.8 °F /  -10.1 °C 6.4 °F /  -14.2 °C 1021.9 in /  34601.5 hPa WSW 5.6 mph /  9 km/h 5.6 mph /  9 km/h 61 % 0.0 in /  0 mm
20:26 13.8 °F /  -10.1 °C 6.4 °F /  -14.2 °C 1021.9 in /  34601.5 hPa West 7.9 mph /  12.7 km/h 7.9 mph /  12.7 km/h 61 % 0.0 in /  0 mm
20:30 11.4 °F /  -11.4 °C 5.9 °F /  -14.5 °C 1022.9 in /  34635.4 hPa NE 3.2 mph /  5.1 km/h 4.8 mph /  7.7 km/h 69 % 0.0 in /  0 mm
20:31 13.9 °F /  -10.1 °C 6.7 °F /  -14.1 °C 1021.9 in /  34601.5 hPa WNW 13.0 mph /  20.9 km/h 13.0 mph /  20.9 km/h 62 % 0.0 in /  0 mm
20:32 13.9 °F /  -10.1 °C 6.7 °F /  -14.1 °C 1021.9 in /  34601.5 hPa WSW 7.4 mph /  11.9 km/h 7.4 mph /  11.9 km/h 62 % 0.0 in /  0 mm
20:36 13.8 °F /  -10.1 °C 6.7 °F /  -14.1 °C 1021.9 in /  34601.5 hPa WSW 3.7 mph /  6 km/h 3.7 mph /  6 km/h 62 % 0.0 in /  0 mm
20:39 13.7 °F /  -10.2 °C 6.6 °F /  -14.1 °C 1021.9 in /  34601.5 hPa West 5.6 mph /  9 km/h 5.6 mph /  9 km/h 62 % 0.0 in /  0 mm
20:40 11.2 °F /  -11.6 °C 5.7 °F /  -14.6 °C 1022.9 in /  34635.4 hPa Calm   3.2 mph /  5.1 km/h 69 % 0.0 in /  0 mm
20:41 13.7 °F /  -10.2 °C 6.6 °F /  -14.1 °C 1021.9 in /  34601.5 hPa WSW 7.4 mph /  11.9 km/h 7.4 mph /  11.9 km/h 62 % 0.0 in /  0 mm
20:46 13.7 °F /  -10.2 °C 6.6 °F /  -14.1 °C 1021.9 in /  34601.5 hPa West 5.6 mph /  9 km/h 5.6 mph /  9 km/h 62 % 0.0 in /  0 mm
20:47 13.7 °F /  -10.2 °C 6.6 °F /  -14.1 °C 1021.9 in /  34601.5 hPa SSW 4.7 mph /  7.6 km/h 4.7 mph /  7.6 km/h 62 % 0.0 in /  0 mm
20:50 11.0 °F /  -11.7 °C 5.5 °F /  -14.7 °C 1022.9 in /  34635.4 hPa Calm   3.2 mph /  5.1 km/h 69 % 0.0 in /  0 mm
20:52 13.7 °F /  -10.2 °C 6.6 °F /  -14.1 °C 1022.9 in /  34635.4 hPa West 5.6 mph /  9 km/h 5.6 mph /  9 km/h 62 % 0.0 in /  0 mm
20:53 13.7 °F /  -10.2 °C 6.6 °F /  -14.1 °C 1022.9 in /  34635.4 hPa WSW 5.6 mph /  9 km/h 5.6 mph /  9 km/h 62 % 0.0 in /  0 mm
20:54 13.7 °F /  -10.2 °C 6.6 °F /  -14.1 °C 1022.9 in /  34635.4 hPa WNW 5.6 mph /  9 km/h 5.6 mph /  9 km/h 62 % 0.0 in /  0 mm
20:59 13.7 °F /  -10.2 °C 6.6 °F /  -14.1 °C 1022.9 in /  34635.4 hPa WSW 7.4 mph /  11.9 km/h 7.4 mph /  11.9 km/h 62 % 0.0 in /  0 mm
21:00 11.2 °F /  -11.6 °C 5.9 °F /  -14.5 °C 1022.9 in /  34635.4 hPa ENE 1.6 mph /  2.6 km/h 3.2 mph /  5.1 km/h 70 % 0.0 in /  0 mm
21:04 13.6 °F /  -10.2 °C 6.4 °F /  -14.2 °C 1022.9 in /  34635.4 hPa West 5.8 mph /  9.3 km/h 5.8 mph /  9.3 km/h 62 % 0.0 in /  0 mm
21:05 13.7 °F /  -10.2 °C 6.6 °F /  -14.1 °C 1022.9 in /  34635.4 hPa West 9.3 mph /  15 km/h 9.3 mph /  15 km/h 62 % 0.0 in /  0 mm
21:07 13.7 °F /  -10.2 °C 6.6 °F /  -14.1 °C 1021.9 in /  34601.5 hPa WNW 7.4 mph /  11.9 km/h 7.4 mph /  11.9 km/h 62 % 0.0 in /  0 mm
21:10 11.2 °F /  -11.6 °C 5.9 °F /  -14.5 °C 1022.9 in /  34635.4 hPa Calm   3.2 mph /  5.1 km/h 70 % 0.0 in /  0 mm
21:11 13.6 °F /  -10.2 °C 6.4 °F /  -14.2 °C 1021.9 in /  34601.5 hPa WSW 7.4 mph /  11.9 km/h 7.4 mph /  11.9 km/h 62 % 0.0 in /  0 mm
21:13 13.6 °F /  -10.2 °C 6.4 °F /  -14.2 °C 1021.9 in /  34601.5 hPa SSW 6.1 mph /  9.8 km/h 6.1 mph /  9.8 km/h 62 % 0.0 in /  0 mm
21:18 13.5 °F /  -10.3 °C 6.3 °F /  -14.3 °C 1021.9 in /  34601.5 hPa WSW 4.7 mph /  7.6 km/h 4.7 mph /  7.6 km/h 62 % 0.0 in /  0 mm
21:20 13.5 °F /  -10.3 °C 6.3 °F /  -14.3 °C 1021.9 in /  34601.5 hPa NNE 11.1 mph /  17.9 km/h 11.1 mph /  17.9 km/h 62 % 0.0 in /  0 mm
21:25 13.5 °F /  -10.3 °C 6.6 °F /  -14.1 °C 1021.9 in /  34601.5 hPa WSW 9.3 mph /  15 km/h 9.3 mph /  15 km/h 63 % 0.0 in /  0 mm
21:26 13.5 °F /  -10.3 °C 6.6 °F /  -14.1 °C 1021.9 in /  34601.5 hPa ENE 1.9 mph /  3.1 km/h   63 % 0.0 in /  0 mm
21:30 11.7 °F /  -11.3 °C 6.6 °F /  -14.1 °C 1023.9 in /  34669.3 hPa ESE 3.2 mph /  5.1 km/h 4.8 mph /  7.7 km/h 71 % 0.0 in /  0 mm
21:31 13.5 °F /  -10.3 °C 6.6 °F /  -14.1 °C 1021.9 in /  34601.5 hPa WNW 9.3 mph /  15 km/h 9.3 mph /  15 km/h 63 % 0.0 in /  0 mm
21:36 13.4 °F /  -10.3 °C 6.5 °F /  -14.2 °C 1021.9 in /  34601.5 hPa WSW 4.2 mph /  6.8 km/h 4.2 mph /  6.8 km/h 63 % 0.0 in /  0 mm
21:37 13.4 °F /  -10.3 °C 6.5 °F /  -14.2 °C 1021.9 in /  34601.5 hPa NNW 3.7 mph /  6 km/h 3.7 mph /  6 km/h 63 % 0.0 in /  0 mm
21:40 11.4 °F /  -11.4 °C 6.1 °F /  -14.4 °C 1023.9 in /  34669.3 hPa ESE 1.6 mph /  2.6 km/h 6.4 mph /  10.3 km/h 70 % 0.0 in /  0 mm
21:42 13.3 °F /  -10.4 °C 6.4 °F /  -14.2 °C 1021.9 in /  34601.5 hPa WSW 3.7 mph /  6 km/h 3.7 mph /  6 km/h 63 % 0.0 in /  0 mm
21:44 13.3 °F /  -10.4 °C 6.4 °F /  -14.2 °C 1021.9 in /  34601.5 hPa WSW 3.7 mph /  6 km/h 3.7 mph /  6 km/h 63 % 0.0 in /  0 mm
21:46 13.2 °F /  -10.4 °C 6.3 °F /  -14.3 °C 1021.9 in /  34601.5 hPa ENE 3.7 mph /  6 km/h 3.7 mph /  6 km/h 63 % 0.0 in /  0 mm
21:50 11.5 °F /  -11.4 °C 6.2 °F /  -14.3 °C 1022.9 in /  34635.4 hPa NE 1.6 mph /  2.6 km/h 4.8 mph /  7.7 km/h 70 % 0.0 in /  0 mm
21:51 13.1 °F /  -10.5 °C 6.2 °F /  -14.3 °C 1022.9 in /  34635.4 hPa SSE 5.6 mph /  9 km/h   63 % 0.0 in /  0 mm
21:52 13.1 °F /  -10.5 °C 6.2 °F /  -14.3 °C 1022.9 in /  34635.4 hPa SSE 5.6 mph /  9 km/h   63 % 0.0 in /  0 mm
21:53 13.1 °F /  -10.5 °C 6.2 °F /  -14.3 °C 1022.9 in /  34635.4 hPa West 3.9 mph /  6.3 km/h 3.9 mph /  6.3 km/h 63 % 0.0 in /  0 mm
21:58 13.1 °F /  -10.5 °C 6.2 °F /  -14.3 °C 1022.9 in /  34635.4 hPa SW 1.9 mph /  3.1 km/h 1.9 mph /  3.1 km/h 63 % 0.0 in /  0 mm
21:59 13.1 °F /  -10.5 °C 6.4 °F /  -14.2 °C 1022.9 in /  34635.4 hPa WSW 4.7 mph /  7.6 km/h   64 % 0.0 in /  0 mm
22:00 11.9 °F /  -11.2 °C 6.8 °F /  -14 °C 1022.9 in /  34635.4 hPa NNE 3.2 mph /  5.1 km/h 6.4 mph /  10.3 km/h 71 % 0.0 in /  0 mm
22:04 13.2 °F /  -10.4 °C 6.3 °F /  -14.3 °C 1022.9 in /  34635.4 hPa WNW 6.1 mph /  9.8 km/h 6.1 mph /  9.8 km/h 63 % 0.0 in /  0 mm
22:05 13.2 °F /  -10.4 °C 6.3 °F /  -14.3 °C 1022.9 in /  34635.4 hPa West 5.6 mph /  9 km/h 5.6 mph /  9 km/h 63 % 0.0 in /  0 mm
22:10 13.2 °F /  -10.4 °C 6.6 °F /  -14.1 °C 1022.9 in /  34635.4 hPa SW 3.7 mph /  6 km/h 3.7 mph /  6 km/h 64 % 0.0 in /  0 mm
22:11 13.1 °F /  -10.5 °C 6.4 °F /  -14.2 °C 1022.9 in /  34635.4 hPa WNW 3.7 mph /  6 km/h 3.7 mph /  6 km/h 64 % 0.0 in /  0 mm
22:16 13.1 °F /  -10.5 °C 6.4 °F /  -14.2 °C 1022.9 in /  34635.4 hPa WSW 5.6 mph /  9 km/h 5.6 mph /  9 km/h 64 % 0.0 in /  0 mm
22:19 13.1 °F /  -10.5 °C 6.4 °F /  -14.2 °C 1022.9 in /  34635.4 hPa Calm     64 % 0.0 in /  0 mm
22:20 12.4 °F /  -10.9 °C 7.1 °F /  -13.8 °C 1023.9 in /  34669.3 hPa WNW 3.2 mph /  5.1 km/h 4.8 mph /  7.7 km/h 70 % 0.0 in /  0 mm
22:24 13.0 °F /  -10.6 °C 6.3 °F /  -14.3 °C 1022.9 in /  34635.4 hPa WSW 3.7 mph /  6 km/h 3.7 mph /  6 km/h 64 % 0.0 in /  0 mm
22:25 13.0 °F /  -10.6 °C 6.3 °F /  -14.3 °C 1022.9 in /  34635.4 hPa WSW 9.3 mph /  15 km/h 9.3 mph /  15 km/h 64 % 0.0 in /  0 mm
22:30 13.0 °F /  -10.6 °C 6.3 °F /  -14.3 °C 1022.9 in /  34635.4 hPa WSW 1.9 mph /  3.1 km/h 1.9 mph /  3.1 km/h 64 % 0.0 in /  0 mm
22:31 13.0 °F /  -10.6 °C 6.3 °F /  -14.3 °C 1022.9 in /  34635.4 hPa WSW 1.9 mph /  3.1 km/h   64 % 0.0 in /  0 mm
22:36 12.8 °F /  -10.7 °C 6.2 °F /  -14.3 °C 1022.9 in /  34635.4 hPa SW 5.6 mph /  9 km/h 5.6 mph /  9 km/h 64 % 0.0 in /  0 mm
22:37 12.8 °F /  -10.7 °C 6.2 °F /  -14.3 °C 1022.9 in /  34635.4 hPa WSW 3.7 mph /  6 km/h 3.7 mph /  6 km/h 64 % 0.0 in /  0 mm
22:42 12.7 °F /  -10.7 °C 6.1 °F /  -14.4 °C 1022.9 in /  34635.4 hPa Calm     64 % 0.0 in /  0 mm
22:46 12.6 °F /  -10.8 °C 5.9 °F /  -14.5 °C 1022.9 in /  34635.4 hPa NNW 1.9 mph /  3.1 km/h   64 % 0.0 in /  0 mm
22:50 12.6 °F /  -10.8 °C 7.1 °F /  -13.8 °C 1022.9 in /  34635.4 hPa West 3.2 mph /  5.1 km/h 4.8 mph /  7.7 km/h 69 % 0.0 in /  0 mm
22:51 12.6 °F /  -10.8 °C 6.2 °F /  -14.3 °C 1022.9 in /  34635.4 hPa West 1.9 mph /  3.1 km/h 2.3 mph /  3.7 km/h 65 % 0.0 in /  0 mm
22:54 12.6 °F /  -10.8 °C 5.9 °F /  -14.5 °C 1022.9 in /  34635.4 hPa West 3.7 mph /  6 km/h 3.7 mph /  6 km/h 64 % 0.0 in /  0 mm
22:57 12.5 °F /  -10.8 °C 5.9 °F /  -14.5 °C 1022.9 in /  34635.4 hPa West 4.7 mph /  7.6 km/h 4.7 mph /  7.6 km/h 64 % 0.0 in /  0 mm
23:00 12.6 °F /  -10.8 °C 7.1 °F /  -13.8 °C 1022.9 in /  34635.4 hPa WSW 3.2 mph /  5.1 km/h 6.4 mph /  10.3 km/h 69 % 0.0 in /  0 mm
23:02 12.5 °F /  -10.8 °C 6.1 °F /  -14.4 °C 1022.9 in /  34635.4 hPa NW 3.7 mph /  6 km/h 3.7 mph /  6 km/h 65 % 0.0 in /  0 mm
23:03 12.5 °F /  -10.8 °C 6.1 °F /  -14.4 °C 1022.9 in /  34635.4 hPa NW 1.9 mph /  3.1 km/h 2.3 mph /  3.7 km/h 65 % 0.0 in /  0 mm
23:07 12.5 °F /  -10.8 °C 6.1 °F /  -14.4 °C 1022.9 in /  34635.4 hPa North 3.7 mph /  6 km/h 3.7 mph /  6 km/h 65 % 0.0 in /  0 mm
23:12 12.5 °F /  -10.8 °C 6.1 °F /  -14.4 °C 1022.9 in /  34635.4 hPa WSW 2.3 mph /  3.7 km/h 2.3 mph /  3.7 km/h 65 % 0.0 in /  0 mm
23:16 12.5 °F /  -10.8 °C 6.1 °F /  -14.4 °C 1022.9 in /  34635.4 hPa WSW 3.7 mph /  6 km/h 3.7 mph /  6 km/h 65 % 0.0 in /  0 mm
23:17 12.5 °F /  -10.8 °C 6.1 °F /  -14.4 °C 1022.9 in /  34635.4 hPa WSW 3.7 mph /  6 km/h 3.7 mph /  6 km/h 65 % 0.0 in /  0 mm
23:20 12.5 °F /  -10.8 °C 6.9 °F /  -13.9 °C 1022.9 in /  34635.4 hPa West 3.2 mph /  5.1 km/h 3.2 mph /  5.1 km/h 69 % 0.0 in /  0 mm
23:22 12.4 °F /  -10.9 °C 6.2 °F /  -14.3 °C 1022.9 in /  34635.4 hPa Calm     66 % 0.0 in /  0 mm
23:27 12.4 °F /  -10.9 °C 6.2 °F /  -14.3 °C 1022.9 in /  34635.4 hPa West 1.9 mph /  3.1 km/h 1.9 mph /  3.1 km/h 66 % 0.0 in /  0 mm
23:28 12.4 °F /  -10.9 °C 6.2 °F /  -14.3 °C 1022.9 in /  34635.4 hPa West 1.9 mph /  3.1 km/h   66 % 0.0 in /  0 mm
23:30 12.5 °F /  -10.8 °C 6.9 °F /  -13.9 °C 1022.9 in /  34635.4 hPa WSW 3.2 mph /  5.1 km/h 4.8 mph /  7.7 km/h 69 % 0.0 in /  0 mm
23:33 12.2 °F /  -11 °C 6.1 °F /  -14.4 °C 1022.9 in /  34635.4 hPa Calm     66 % 0.0 in /  0 mm
23:36 12.2 °F /  -11 °C 6.1 °F /  -14.4 °C 1022.9 in /  34635.4 hPa WNW 3.7 mph /  6 km/h 3.7 mph /  6 km/h 66 % 0.0 in /  0 mm
23:40 12.2 °F /  -11 °C 6.1 °F /  -14.4 °C 1022.9 in /  34635.4 hPa WSW 3.7 mph /  6 km/h 3.7 mph /  6 km/h 66 % 0.0 in /  0 mm
23:41 12.2 °F /  -11 °C 6.1 °F /  -14.4 °C 1022.9 in /  34635.4 hPa WSW 3.7 mph /  6 km/h 3.7 mph /  6 km/h 66 % 0.0 in /  0 mm
23:46 12.1 °F /  -11.1 °C 5.9 °F /  -14.5 °C 1022.9 in /  34635.4 hPa West 3.7 mph /  6 km/h 3.7 mph /  6 km/h 66 % 0.0 in /  0 mm
23:49 12.1 °F /  -11.1 °C 5.9 °F /  -14.5 °C 1022.9 in /  34635.4 hPa NNW 3.9 mph /  6.3 km/h   66 % 0.0 in /  0 mm
23:50 12.3 °F /  -10.9 °C 6.8 °F /  -14 °C 1022.9 in /  34635.4 hPa WNW 3.2 mph /  5.1 km/h 4.8 mph /  7.7 km/h 69 % 0.0 in /  0 mm
23:51 12.2 °F /  -11 °C 6.1 °F /  -14.4 °C 1022.9 in /  34635.4 hPa West 3.7 mph /  6 km/h 3.7 mph /  6 km/h 66 % 0.0 in /  0 mm
23:56 12.2 °F /  -11 °C 6.1 °F /  -14.4 °C 1022.9 in /  34635.4 hPa South 7.4 mph /  11.9 km/h 7.4 mph /  11.9 km/h 66 % 0.0 in /  0 mm
23:59 12.3 °F /  -10.9 °C 6.3 °F /  -14.3 °C 1022.9 in /  34635.4 hPa WNW 5.6 mph /  9 km/h 5.6 mph /  9 km/h 67 % 0.0 in /  0 mm
Meteo Sesrovires
Elogis d' Weather Underground - 2 mb

Guio original per  Jim McMurry - jmcmurry@mwt.net Adaptat per a la plantilla per  Wim van der Kuil - Leuven-Template.eu

Trobareu la nostra informacio del temps tambe a:

Weather Underground

AWEKAS